Time;durP1;ratioP1;P1;durP2;ratioP2;P2;SDS_P1;SDS_P2;PMS_P1;PMS_P2;Temp;Humidity;BMP_temperature;BMP_pressure;BME280_temperature;BME280_humidity;BME280_pressure;Samples;Min_cycle;Max_cycle;Signal;HPM_P1;HPM_P2
2022/01/02 00:00:06;;;;;;;0.10;0.10;;;;;;;10.91;74.17;99539.50;5073116;28;20034;-82
2022/01/02 00:02:33;;;;;;;0.00;0.00;;;;;;;10.85;74.23;99536.81;5073174;28;20063;-82
2022/01/02 00:05:06;;;;;;;0.22;0.22;;;;;;;10.89;74.13;99545.13;5072913;28;20085;-82
2022/01/02 00:07:35;;;;;;;0.00;0.00;;;;;;;10.78;74.60;99535.44;5073238;28;20564;-82
2022/01/02 00:10:05;;;;;;;0.00;0.00;;;;;;;10.85;74.30;99546.69;5072875;28;20036;-82
2022/01/02 00:12:35;;;;;;;0.00;0.00;;;;;;;10.84;74.66;99550.44;5073044;28;20020;-82
2022/01/02 00:15:06;;;;;;;0.00;0.00;;;;;;;10.81;74.41;99551.00;5072845;28;20055;-82
2022/01/02 00:17:32;;;;;;;0.35;0.35;;;;;;;10.82;74.47;99544.56;5072745;28;20479;-82
2022/01/02 00:20:08;;;;;;;0.05;0.05;;;;;;;10.80;74.61;99547.53;5072627;28;20032;-83
2022/01/02 00:22:36;;;;;;;0.10;0.10;;;;;;;10.80;74.43;99549.38;5072917;28;20032;-82
2022/01/02 00:25:06;;;;;;;0.00;0.00;;;;;;;10.72;74.07;99540.81;5072663;28;20581;-82
2022/01/02 00:27:34;;;;;;;0.00;0.00;;;;;;;10.81;74.83;99551.00;5072738;28;20068;-80
2022/01/02 00:30:03;;;;;;;1.00;0.75;;;;;;;10.78;74.51;99563.03;5072545;28;20106;-82
2022/01/02 00:32:29;;;;;;;0.38;0.35;;;;;;;10.84;74.54;99571.84;5072670;28;20020;-82
2022/01/02 00:34:55;;;;;;;0.00;0.00;;;;;;;10.80;74.19;99562.75;5072347;28;20491;-82
2022/01/02 00:37:20;;;;;;;0.00;0.00;;;;;;;10.81;74.26;99567.03;5072372;28;20077;-82
2022/01/02 00:39:46;;;;;;;0.15;0.15;;;;;;;10.83;73.94;99570.25;5072521;28;20047;-82
2022/01/02 00:42:32;;;;;;;0.10;0.10;;;;;;;10.80;74.16;99557.41;5072216;28;20366;-82
2022/01/02 00:45:05;;;;;;;0.30;0.30;;;;;;;10.78;74.28;99559.53;5072339;28;20036;-82
2022/01/02 00:47:37;;;;;;;0.20;0.20;;;;;;;10.82;74.05;99563.31;5072336;28;20617;-82
2022/01/02 00:50:12;;;;;;;0.28;0.28;;;;;;;10.78;74.13;99572.91;5072053;28;20045;-82
2022/01/02 00:52:46;;;;;;;0.20;0.20;;;;;;;10.68;74.13;99557.63;5072191;28;20021;-82
2022/01/02 00:55:22;;;;;;;1.17;0.80;;;;;;;10.72;74.13;99564.09;5072105;28;20033;-82
2022/01/02 00:57:58;;;;;;;0.20;0.20;;;;;;;10.75;74.13;99573.44;5072147;28;20039;-83
2022/01/02 01:00:24;;;;;;;0.03;0.03;;;;;;;10.69;74.26;99562.75;5071862;28;20036;-82
2022/01/02 01:02:56;;;;;;;0.00;0.00;;;;;;;10.70;73.82;99567.00;5072213;28;20172;-83
2022/01/02 01:05:21;;;;;;;0.17;0.17;;;;;;;10.71;73.80;99576.63;5072055;28;20032;-82
2022/01/02 01:07:49;;;;;;;0.68;0.68;;;;;;;10.64;73.90;99564.59;5072058;28;20032;-83
2022/01/02 01:10:15;;;;;;;0.00;0.00;;;;;;;10.56;74.11;99552.53;5071937;28;20099;-83
2022/01/02 01:12:40;;;;;;;0.20;0.20;;;;;;;10.65;74.29;99571.56;5071923;28;20115;-82
2022/01/02 01:15:08;;;;;;;0.10;0.10;;;;;;;10.56;74.24;99552.53;5071757;28;20033;-82
2022/01/02 01:17:36;;;;;;;0.05;0.05;;;;;;;10.65;74.00;99563.53;5071832;28;20028;-82
2022/01/02 01:20:04;;;;;;;0.52;0.52;;;;;;;10.61;73.89;99567.78;5071598;28;20040;-82
2022/01/02 01:22:30;;;;;;;0.00;0.00;;;;;;;10.61;74.07;99565.09;5071776;28;20036;-82
2022/01/02 01:24:57;;;;;;;0.00;0.00;;;;;;;10.59;73.99;99569.94;5071506;28;20032;-82
2022/01/02 01:27:22;;;;;;;0.13;0.13;;;;;;;10.63;73.77;99577.16;5071665;28;20032;-82
2022/01/02 01:29:48;;;;;;;0.20;0.20;;;;;;;10.55;73.69;99575.00;5071676;28;20402;-82
2022/01/02 01:32:13;;;;;;;0.00;0.00;;;;;;;10.46;74.04;99552.50;5071275;28;20024;-82
2022/01/02 01:34:39;;;;;;;0.20;0.20;;;;;;;10.59;74.20;99576.06;5071101;28;20032;-82
2022/01/02 01:37:05;;;;;;;0.32;0.32;;;;;;;10.58;74.23;99574.47;5071226;28;20028;-83
2022/01/02 01:39:30;;;;;;;0.35;0.35;;;;;;;10.52;74.12;99572.84;5071247;28;20428;-83
2022/01/02 01:42:05;;;;;;;0.00;0.00;;;;;;;10.49;73.91;99570.69;5071211;28;20484;-83
2022/01/02 01:44:41;;;;;;;0.10;0.10;;;;;;;10.49;74.45;99570.69;5071655;28;20047;-83
2022/01/02 01:47:07;;;;;;;0.05;0.05;;;;;;;10.45;74.51;99572.28;5071128;28;20020;-83
2022/01/02 01:49:32;;;;;;;0.00;0.00;;;;;;;10.46;74.57;99576.56;5070829;28;20113;-82
2022/01/02 01:51:58;;;;;;;0.00;0.00;;;;;;;10.42;74.25;99570.94;5070945;28;20032;-83
2022/01/02 01:54:24;;;;;;;0.00;0.00;;;;;;;10.41;74.26;99570.13;5070511;28;20028;-83
2022/01/02 01:56:52;;;;;;;0.98;0.45;;;;;;;10.42;74.49;99568.25;5071156;28;20021;-83
2022/01/02 01:59:19;;;;;;;0.00;0.00;;;;;;;10.38;74.05;99575.22;5070854;28;20032;-83
2022/01/02 02:01:45;;;;;;;0.00;0.00;;;;;;;10.31;74.41;99556.69;5071022;28;20032;-83
2022/01/02 02:04:10;;;;;;;0.00;0.00;;;;;;;10.35;74.59;99562.31;5070714;28;20035;-81
2022/01/02 02:06:37;;;;;;;1.45;1.45;;;;;;;10.35;74.20;99563.13;5070888;28;20033;-81
2022/01/02 02:09:04;;;;;;;0.00;0.00;;;;;;;10.36;73.89;99558.56;5070794;28;20517;-81
2022/01/02 02:11:30;;;;;;;0.10;0.10;;;;;;;10.25;74.17;99549.72;5070745;28;20027;-82
2022/01/02 02:13:56;;;;;;;0.10;0.10;;;;;;;10.36;74.68;99566.59;5070559;28;20024;-82
2022/01/02 02:16:23;;;;;;;0.32;0.32;;;;;;;10.33;74.27;99567.94;5070591;28;20028;-81
2022/01/02 02:18:49;;;;;;;0.00;0.00;;;;;;;10.26;74.28;99554.00;5070759;28;20028;-81
2022/01/02 02:21:14;;;;;;;0.00;0.00;;;;;;;10.20;74.25;99549.69;5070510;28;20403;-82
2022/01/02 02:23:42;;;;;;;0.05;0.05;;;;;;;10.18;74.22;99541.13;5070641;28;20048;-81
2022/01/02 02:26:08;;;;;;;0.45;0.45;;;;;;;10.31;74.37;99569.25;5070320;28;20025;-82
2022/01/02 02:28:34;;;;;;;0.20;0.20;;;;;;;10.27;74.38;99562.84;5070536;28;20043;-81
2022/01/02 02:30:59;;;;;;;0.10;0.10;;;;;;;10.23;74.35;99566.03;5070279;28;20031;-82
2022/01/02 02:33:25;;;;;;;0.75;0.75;;;;;;;10.24;74.25;99559.63;5070262;28;20484;-81
2022/01/02 02:35:51;;;;;;;0.10;0.10;;;;;;;10.24;73.85;99548.91;5070375;28;20024;-81
2022/01/02 02:38:18;;;;;;;0.00;0.00;;;;;;;10.24;73.95;99556.13;5069975;28;20057;-81
2022/01/02 02:40:44;;;;;;;0.00;0.00;;;;;;;10.19;74.04;99550.75;5070291;28;20021;-80
2022/01/02 02:49:03;;;;;;;0.10;0.10;;;;;;;10.23;73.92;99558.00;5075815;28;20055;-81
2022/01/02 02:54:10;;;;;;;0.10;0.10;;;;;;;10.25;74.21;99574.59;5091253;28;20059;-81
2022/01/02 02:59:08;;;;;;;0.20;0.20;;;;;;;10.17;73.78;99567.06;5091296;28;20024;-81
2022/01/02 03:01:33;;;;;;;0.00;0.00;;;;;;;10.16;74.65;99570.78;5073396;28;20119;-80
2022/01/02 03:03:59;;;;;;;0.35;0.35;;;;;;;10.14;74.23;99575.59;5073224;28;20081;-81
2022/01/02 03:06:24;;;;;;;0.00;0.00;;;;;;;10.11;74.42;99576.13;5072322;28;20039;-82
2022/01/02 03:08:51;;;;;;;0.00;0.00;;;;;;;10.08;74.34;99572.09;5073313;28;20024;-81
2022/01/02 03:11:19;;;;;;;0.45;0.45;;;;;;;10.12;74.35;99588.44;5072837;28;20059;-81
2022/01/02 03:13:47;;;;;;;0.00;0.00;;;;;;;10.06;74.73;99576.91;5073219;28;20028;-81
2022/01/02 03:16:13;;;;;;;0.00;0.00;;;;;;;10.05;75.12;99582.50;5072907;28;20107;-81
2022/01/02 03:18:39;;;;;;;0.00;0.00;;;;;;;10.04;74.65;99578.22;5073183;28;20028;-81
2022/01/02 03:21:05;;;;;;;0.00;0.00;;;;;;;9.97;74.80;99580.31;5072838;28;20467;-81
2022/01/02 03:23:30;;;;;;;0.20;0.20;;;;;;;10.02;75.08;99581.16;5073077;28;20106;-81
2022/01/02 03:25:56;;;;;;;0.05;0.05;;;;;;;10.00;75.20;99593.16;5073139;28;20548;-81
2022/01/02 03:28:21;;;;;;;0.10;0.10;;;;;;;9.98;74.84;99595.28;5072804;28;20028;-81
2022/01/02 03:30:47;;;;;;;0.00;0.00;;;;;;;10.01;75.09;99598.25;5072692;28;20028;-81
2022/01/02 03:33:13;;;;;;;0.20;0.20;;;;;;;10.02;74.63;99607.88;5072575;28;20144;-81
2022/01/02 03:35:38;;;;;;;0.00;0.00;;;;;;;10.06;74.86;99613.50;5072777;28;20064;-81
2022/01/02 03:38:05;;;;;;;0.30;0.30;;;;;;;10.05;74.67;99601.22;5072702;28;20077;-81
2022/01/02 03:40:30;;;;;;;0.20;0.20;;;;;;;9.99;74.96;99602.25;5072809;28;20032;-81
2022/01/02 03:42:56;;;;;;;0.00;0.00;;;;;;;9.98;75.23;99606.78;5072920;28;20027;-82
2022/01/02 03:45:22;;;;;;;0.00;0.00;;;;;;;9.95;74.84;99607.31;5072600;28;20059;-81
2022/01/02 03:47:47;;;;;;;0.10;0.10;;;;;;;9.94;75.29;99608.34;5072785;28;20039;-81
2022/01/02 03:50:13;;;;;;;0.57;0.57;;;;;;;9.96;75.21;99627.63;5072552;28;20059;-81
2022/01/02 03:52:39;;;;;;;0.10;0.10;;;;;;;9.92;75.58;99624.66;5072734;28;20077;-81
2022/01/02 03:55:05;;;;;;;0.45;0.45;;;;;;;9.83;75.58;99617.38;5072297;28;20036;-81
2022/01/02 03:57:30;;;;;;;0.00;0.00;;;;;;;9.82;75.67;99615.75;5072555;28;20118;-81
2022/01/02 03:59:56;;;;;;;0.00;0.00;;;;;;;9.83;75.57;99620.84;5072822;28;20027;-81
2022/01/02 04:02:21;;;;;;;0.10;0.10;;;;;;;9.73;75.56;99618.09;5072492;28;20471;-82
2022/01/02 04:04:47;;;;;;;0.00;0.00;;;;;;;9.78;75.81;99626.16;5072594;28;20092;-81
2022/01/02 04:07:12;;;;;;;0.05;0.05;;;;;;;9.74;75.76;99620.50;5072462;28;20032;-81
2022/01/02 04:09:38;;;;;;;0.00;0.00;;;;;;;9.69;76.46;99627.66;5072688;28;20475;-82
2022/01/02 04:12:03;;;;;;;0.00;0.00;;;;;;;9.64;76.63;99628.44;5072602;28;20029;-81
2022/01/02 04:14:29;;;;;;;1.17;0.55;;;;;;;9.63;76.50;99623.34;5072288;28;20088;-81
2022/01/02 04:16:54;;;;;;;0.00;0.00;;;;;;;9.59;76.94;99629.22;5073678;28;20118;-81
2022/01/02 04:19:20;;;;;;;0.00;0.00;;;;;;;9.53;76.88;99627.56;5076024;28;20039;-81
2022/01/02 04:21:45;;;;;;;0.00;0.00;;;;;;;9.56;76.90;99629.72;5076272;28;20032;-81
2022/01/02 04:24:11;;;;;;;0.10;0.10;;;;;;;9.58;77.08;99640.97;5075969;28;20115;-81
2022/01/02 04:26:36;;;;;;;0.00;0.00;;;;;;;9.55;77.59;99640.66;5076212;28;20119;-81
2022/01/02 04:29:03;;;;;;;0.22;0.22;;;;;;;9.50;77.61;99627.28;5076060;28;20165;-81
2022/01/02 04:31:28;;;;;;;0.00;0.00;;;;;;;9.54;77.17;99636.38;5075846;28;20034;-81
2022/01/02 04:33:53;;;;;;;0.57;0.57;;;;;;;9.54;77.92;99645.19;5076066;28;20126;-81
2022/01/02 04:36:19;;;;;;;0.00;0.00;;;;;;;9.53;77.25;99638.25;5075794;28;20135;-81
2022/01/02 04:38:45;;;;;;;0.20;0.20;;;;;;;9.54;77.77;99653.19;5076036;28;20494;-82
2022/01/02 04:41:11;;;;;;;1.23;1.00;;;;;;;9.51;77.82;99643.03;5075714;28;20032;-81
2022/01/02 04:43:37;;;;;;;0.00;0.00;;;;;;;9.48;77.81;99651.53;5075909;28;20040;-82
2022/01/02 04:46:02;;;;;;;0.00;0.00;;;;;;;9.44;77.95;99648.56;5075889;28;20059;-82
2022/01/02 04:48:28;;;;;;;0.05;0.05;;;;;;;9.42;77.73;99652.56;5075435;28;20032;-82
2022/01/02 04:50:53;;;;;;;0.00;0.00;;;;;;;9.42;78.08;99660.56;5075716;28;20028;-82
2022/01/02 04:53:21;;;;;;;0.00;0.00;;;;;;;9.21;78.24;99628.34;5075334;28;20460;-83
2022/01/02 04:55:46;;;;;;;0.00;0.00;;;;;;;9.40;77.98;99658.16;5075704;28;20115;-82
2022/01/02 04:58:12;;;;;;;0.00;0.00;;;;;;;9.38;78.37;99654.91;5075223;28;20169;-82
2022/01/02 05:00:37;;;;;;;0.28;0.28;;;;;;;9.40;78.61;99658.16;5075547;28;20395;-81
2022/01/02 05:03:03;;;;;;;0.00;0.00;;;;;;;9.36;78.62;99659.72;5075657;28;20475;-82
2022/01/02 05:05:28;;;;;;;0.00;0.00;;;;;;;9.29;78.61;99659.13;5075229;28;20040;-82
2022/01/02 05:07:54;;;;;;;0.00;0.00;;;;;;;9.35;78.81;99659.97;5075272;28;20032;-82
2022/01/02 05:10:19;;;;;;;0.30;0.30;;;;;;;9.30;79.13;99663.38;5075132;28;20024;-82
2022/01/02 05:12:45;;;;;;;0.00;0.00;;;;;;;9.35;78.78;99673.31;5075133;28;20028;-82
2022/01/02 05:15:10;;;;;;;0.00;0.00;;;;;;;9.33;79.24;99670.91;5075220;28;20115;-82
2022/01/02 05:17:36;;;;;;;0.00;0.00;;;;;;;9.33;79.10;99678.91;5075494;28;20036;-82
2022/01/02 05:20:02;;;;;;;0.00;0.00;;;;;;;9.31;79.30;99674.88;5075172;28;20028;-82
2022/01/02 05:22:27;;;;;;;0.00;0.00;;;;;;;9.35;79.39;99681.31;5075030;28;20124;-82
2022/01/02 05:24:53;;;;;;;1.00;1.00;;;;;;;9.33;79.16;99670.91;5075172;28;20526;-81
2022/01/02 05:27:18;;;;;;;0.20;0.20;;;;;;;9.33;79.18;99681.56;5074873;28;20035;-82
2022/01/02 05:29:44;;;;;;;0.00;0.00;;;;;;;9.37;79.39;99681.88;5073852;28;20031;-81
2022/01/02 05:32:09;;;;;;;0.00;0.00;;;;;;;9.39;79.33;99688.56;5074837;28;20024;-81
2022/01/02 05:34:35;;;;;;;0.00;0.00;;;;;;;9.25;79.47;99663.34;5074990;28;20059;-81
2022/01/02 05:37:00;;;;;;;0.00;0.00;;;;;;;9.38;79.26;99678.94;5075122;28;20024;-81
2022/01/02 05:39:26;;;;;;;0.00;0.00;;;;;;;9.42;79.72;99689.94;5074680;28;20085;-82
2022/01/02 05:41:51;;;;;;;0.00;0.00;;;;;;;9.45;79.18;99687.56;5074838;28;20028;-82
2022/01/02 05:44:18;;;;;;;0.40;0.40;;;;;;;9.48;79.37;99685.44;5074551;28;20069;-82
2022/01/02 05:46:44;;;;;;;0.00;0.00;;;;;;;9.33;79.12;99668.22;5074544;28;20048;-82
2022/01/02 05:49:11;;;;;;;0.00;0.00;;;;;;;9.56;79.39;99691.13;5074428;28;20422;-81
2022/01/02 05:51:36;;;;;;;0.00;0.00;;;;;;;9.61;78.97;99690.38;5074594;28;20032;-82
2022/01/02 05:54:02;;;;;;;0.55;0.55;;;;;;;9.59;79.13;99679.97;5074295;28;20024;-82
2022/01/02 05:56:28;;;;;;;0.10;0.10;;;;;;;9.73;79.39;99698.25;5073873;28;20074;-80
2022/01/02 05:58:53;;;;;;;0.00;0.00;;;;;;;9.77;79.19;99694.78;5074247;28;20064;-82
2022/01/02 06:01:19;;;;;;;0.00;0.00;;;;;;;9.79;79.16;99686.53;5074102;28;20028;-83
2022/01/02 06:03:44;;;;;;;0.63;0.63;;;;;;;9.84;78.54;99689.25;5074326;28;20554;-82
2022/01/02 06:06:09;;;;;;;0.20;0.20;;;;;;;9.98;78.37;99702.16;5074204;28;20085;-82
2022/01/02 06:08:36;;;;;;;0.00;0.00;;;;;;;10.01;78.36;99702.47;5074042;28;20124;-82
2022/01/02 06:11:02;;;;;;;0.00;0.00;;;;;;;10.10;78.19;99702.78;5074051;28;20096;-82
2022/01/02 06:13:27;;;;;;;0.00;0.00;;;;;;;10.16;77.51;99709.00;5073633;28;20463;-80
2022/01/02 06:15:53;;;;;;;0.95;0.95;;;;;;;10.26;77.42;99711.72;5073630;28;20475;-81
2022/01/02 06:18:19;;;;;;;0.00;0.00;;;;;;;10.34;77.20;99721.13;5073504;28;20692;-82
2022/01/02 06:20:44;;;;;;;0.00;0.00;;;;;;;10.44;76.40;99729.25;5073923;28;20050;-82
2022/01/02 06:23:10;;;;;;;0.30;0.30;;;;;;;10.51;76.29;99721.81;5074009;28;20471;-83
2022/01/02 06:25:35;;;;;;;0.10;0.10;;;;;;;10.50;75.99;99706.03;5073775;28;20495;-83
2022/01/02 06:28:01;;;;;;;0.00;0.00;;;;;;;10.63;75.72;99720.78;5073925;28;20081;-81
2022/01/02 06:30:26;;;;;;;0.00;0.00;;;;;;;10.72;75.84;99729.94;5073443;28;20141;-82
2022/01/02 06:32:55;;;;;;;0.20;0.20;;;;;;;10.81;75.16;99727.56;5073753;28;20032;-83
2022/01/02 06:35:34;;;;;;;0.00;0.00;;;;;;;10.94;75.15;99737.81;5073574;28;20401;-83
2022/01/02 06:38:09;;;;;;;0.10;0.10;;;;;;;11.05;74.76;99731.41;5073601;28;20028;-83
2022/01/02 06:40:34;;;;;;;0.20;0.20;;;;;;;11.23;74.24;99744.59;5073372;28;20202;-81
2022/01/02 06:43:00;;;;;;;0.00;0.00;;;;;;;11.29;73.63;99746.22;5073642;28;20030;-81
2022/01/02 06:45:25;;;;;;;0.22;0.22;;;;;;;11.38;72.69;99756.16;5073324;28;20060;-82
2022/01/02 06:47:50;;;;;;;0.00;0.00;;;;;;;11.35;72.81;99742.47;5073410;28;20476;-81
2022/01/02 06:50:16;;;;;;;0.40;0.40;;;;;;;11.42;72.68;99748.41;5073313;28;20128;-81
2022/01/02 06:52:41;;;;;;;0.30;0.30;;;;;;;11.44;72.35;99751.63;5073405;28;20582;-81
2022/01/02 06:55:07;;;;;;;1.25;0.63;;;;;;;11.48;72.70;99762.63;5073185;28;20035;-83
2022/01/02 06:57:33;;;;;;;0.00;0.00;;;;;;;11.44;72.57;99748.94;5073082;28;20035;-83
2022/01/02 06:59:58;;;;;;;0.20;0.20;;;;;;;11.47;72.17;99753.75;5073360;28;20024;-81
2022/01/02 07:02:24;;;;;;;0.10;0.10;;;;;;;11.56;72.27;99761.28;5072867;28;20031;-81
2022/01/02 07:04:49;;;;;;;0.00;0.00;;;;;;;11.55;72.35;99757.81;5072982;28;20032;-81
2022/01/02 07:07:14;;;;;;;0.00;0.00;;;;;;;11.61;72.68;99759.44;5073031;28;20024;-81
2022/01/02 07:09:40;;;;;;;0.05;0.05;;;;;;;11.66;72.06;99759.44;5073322;28;20028;-82
2022/01/02 07:12:06;;;;;;;0.10;0.10;;;;;;;11.73;71.89;99766.41;5073229;28;20020;-81
2022/01/02 07:14:32;;;;;;;0.60;0.60;;;;;;;11.78;71.37;99769.91;5073036;28;20028;-82
2022/01/02 07:16:58;;;;;;;0.10;0.10;;;;;;;11.87;72.03;99769.41;5073236;28;20107;-81
2022/01/02 07:19:23;;;;;;;3.25;1.00;;;;;;;11.88;70.40;99776.34;5073015;28;20028;-77
2022/01/02 07:21:50;;;;;;;0.20;0.20;;;;;;;11.83;71.16;99763.75;5073131;28;20046;-80
2022/01/02 07:24:17;;;;;;;0.30;0.30;;;;;;;11.90;70.38;99772.34;5072834;28;20035;-80
2022/01/02 07:26:42;;;;;;;1.25;1.20;;;;;;;11.93;70.82;99779.84;5072925;28;20024;-79
2022/01/02 07:29:09;;;;;;;0.10;0.10;;;;;;;11.93;71.05;99769.13;5073046;28;20073;-78
2022/01/02 07:31:34;;;;;;;0.10;0.10;;;;;;;11.95;70.17;99776.88;5072691;28;20028;-78
2022/01/02 07:34:00;;;;;;;0.10;0.10;;;;;;;11.99;70.60;99778.00;5072917;28;20108;-78
2022/01/02 07:36:25;;;;;;;0.00;0.00;;;;;;;12.01;70.88;99775.84;5072676;28;20024;-78
2022/01/02 07:38:51;;;;;;;0.10;0.10;;;;;;;12.03;70.45;99767.56;5072931;28;20028;-78
2022/01/02 07:41:17;;;;;;;2.08;1.40;;;;;;;12.10;70.39;99774.25;5072558;28;20024;-78
2022/01/02 07:43:42;;;;;;;0.05;0.05;;;;;;;12.12;69.75;99773.97;5072857;28;20024;-78
2022/01/02 07:46:08;;;;;;;0.10;0.10;;;;;;;12.13;69.46;99762.19;5072700;28;20028;-78
2022/01/02 07:48:33;;;;;;;0.10;0.10;;;;;;;12.21;70.00;99769.69;5072603;28;20407;-78
2022/01/02 07:50:59;;;;;;;0.10;0.10;;;;;;;12.30;69.49;99772.63;5072929;28;20024;-78
2022/01/02 07:53:24;;;;;;;0.10;0.10;;;;;;;12.32;69.15;99773.19;5076130;28;20382;-79
2022/01/02 07:55:49;;;;;;;1.85;0.65;;;;;;;12.37;69.35;99762.44;5076843;28;20023;-79
2022/01/02 07:58:15;;;;;;;0.00;0.00;;;;;;;12.44;68.29;99768.34;5076841;28;20027;-79
2022/01/02 08:00:41;;;;;;;0.08;0.08;;;;;;;12.49;68.41;99776.38;5076439;28;20124;-79
2022/01/02 08:03:07;;;;;;;0.10;0.10;;;;;;;12.51;67.89;99783.34;5076570;28;20028;-79
2022/01/02 08:05:32;;;;;;;0.00;0.00;;;;;;;12.52;67.99;99779.59;5076048;28;20553;-79
2022/01/02 08:07:58;;;;;;;0.08;0.08;;;;;;;12.63;67.77;99789.22;5076658;28;20136;-78
2022/01/02 08:10:25;;;;;;;0.65;0.65;;;;;;;12.68;67.68;99788.41;5075799;28;20024;-79
2022/01/02 08:12:51;;;;;;;0.15;0.15;;;;;;;12.71;67.66;99791.38;5076461;28;20028;-78
2022/01/02 08:15:17;;;;;;;0.00;0.00;;;;;;;12.81;67.41;99793.22;5076432;28;20085;-78
2022/01/02 08:17:42;;;;;;;0.38;0.30;;;;;;;12.85;66.86;99796.16;5076310;28;20032;-79
2022/01/02 08:20:08;;;;;;;0.10;0.10;;;;;;;12.94;66.75;99806.06;5076391;28;20035;-79
2022/01/02 08:22:33;;;;;;;0.55;0.55;;;;;;;12.96;66.54;99800.41;5074321;28;20032;-79
2022/01/02 08:24:59;;;;;;;0.10;0.10;;;;;;;13.01;66.76;99802.28;5073876;28;20552;-78
2022/01/02 08:27:24;;;;;;;0.00;0.00;;;;;;;13.08;66.25;99800.13;5073402;28;20028;-78
2022/01/02 08:29:50;;;;;;;4.07;1.13;;;;;;;13.11;66.84;99813.03;5073517;28;20059;-77
2022/01/02 08:32:15;;;;;;;0.30;0.30;;;;;;;13.11;66.68;99807.66;5074371;28;20073;-78
2022/01/02 08:34:41;;;;;;;0.00;0.00;;;;;;;13.19;66.50;99817.81;5075721;28;20390;-78
2022/01/02 08:37:06;;;;;;;0.30;0.30;;;;;;;13.24;65.88;99815.13;5075821;28;20024;-78
2022/01/02 08:39:31;;;;;;;0.17;0.17;;;;;;;13.25;66.13;99813.22;5075736;28;20023;-79
2022/01/02 08:41:57;;;;;;;0.20;0.20;;;;;;;13.28;66.23;99804.59;5075904;28;20408;-79
2022/01/02 08:44:23;;;;;;;0.10;0.10;;;;;;;13.35;66.12;99809.69;5075836;28;20427;-79
2022/01/02 08:46:50;;;;;;;0.10;0.10;;;;;;;13.35;65.68;99810.47;5075792;28;20024;-79
2022/01/02 08:49:16;;;;;;;0.00;0.00;;;;;;;13.38;65.41;99819.94;5075418;28;20048;-79
2022/01/02 08:51:41;;;;;;;0.40;0.40;;;;;;;13.38;65.65;99806.50;5074926;28;20028;-79
2022/01/02 08:54:07;;;;;;;0.15;0.15;;;;;;;13.45;65.81;99815.84;5075489;28;20031;-79
2022/01/02 08:56:32;;;;;;;0.20;0.20;;;;;;;13.52;65.26;99817.44;5075157;28;20039;-78
2022/01/02 08:58:58;;;;;;;0.10;0.10;;;;;;;13.58;65.56;99822.50;5075431;28;20035;-78
2022/01/02 09:01:23;;;;;;;0.00;0.00;;;;;;;13.60;65.73;99820.34;5092990;28;20036;-79
2022/01/02 09:03:49;;;;;;;0.40;0.40;;;;;;;13.66;65.63;99809.56;5073994;28;20028;-79
2022/01/02 09:06:15;;;;;;;0.10;0.10;;;;;;;13.69;65.45;99809.03;5075337;28;20070;-79
2022/01/02 09:08:41;;;;;;;2.38;0.65;;;;;;;13.76;65.05;99809.50;5075022;28;20050;-79
2022/01/02 09:11:06;;;;;;;0.10;0.10;;;;;;;13.84;65.17;99805.44;5075309;28;20085;-79
2022/01/02 09:13:32;;;;;;;0.57;0.57;;;;;;;13.80;64.46;99802.50;5075045;28;20534;-78
2022/01/02 09:15:57;;;;;;;0.20;0.20;;;;;;;13.86;64.67;99793.31;5075223;28;20526;-79
2022/01/02 09:18:23;;;;;;;0.00;0.00;;;;;;;13.93;64.92;99801.06;5074955;28;20024;-79
2022/01/02 09:20:48;;;;;;;0.00;0.00;;;;;;;13.97;64.74;99793.25;5075366;28;20613;-79
2022/01/02 09:23:14;;;;;;;0.30;0.30;;;;;;;14.03;64.74;99800.19;5075285;28;20028;-79
2022/01/02 09:25:39;;;;;;;0.00;0.00;;;;;;;14.03;64.59;99789.44;5074724;28;20467;-80
2022/01/02 09:28:05;;;;;;;0.00;0.00;;;;;;;14.07;64.55;99780.53;5075050;28;20412;-80
2022/01/02 09:30:30;;;;;;;0.17;0.17;;;;;;;14.15;64.41;99779.13;5074571;28;20027;-79
2022/01/02 09:32:57;;;;;;;0.00;0.00;;;;;;;14.19;64.76;99776.66;5074830;28;20035;-79
2022/01/02 09:35:23;;;;;;;0.70;0.70;;;;;;;14.22;65.02;99776.91;5074627;28;20114;-79
2022/01/02 09:37:48;;;;;;;0.17;0.17;;;;;;;14.23;64.33;99772.31;5074899;28;20124;-79
2022/01/02 09:40:13;;;;;;;0.20;0.20;;;;;;;14.24;63.24;99765.84;5074781;28;20019;-78
2022/01/02 09:42:39;;;;;;;0.22;0.22;;;;;;;14.31;63.22;99774.41;5074312;28;20028;-78
2022/01/02 09:45:06;;;;;;;0.73;0.73;;;;;;;14.33;62.37;99768.75;5075006;28;20074;-79
2022/01/02 09:47:32;;;;;;;0.13;0.13;;;;;;;14.37;60.93;99773.28;5074374;28;20032;-78
2022/01/02 09:50:03;;;;;;;0.10;0.10;;;;;;;14.38;61.18;99768.72;5073957;28;20105;-79
2022/01/02 09:52:28;;;;;;;0.00;0.00;;;;;;;14.43;61.62;99757.91;5074024;28;20031;-79
2022/01/02 09:54:54;;;;;;;0.10;0.10;;;;;;;14.47;61.38;99758.13;5074286;28;20119;-79
2022/01/02 09:57:19;;;;;;;0.00;0.00;;;;;;;14.48;60.78;99757.84;5074313;28;20024;-78
2022/01/02 09:59:45;;;;;;;0.00;0.00;;;;;;;14.54;61.56;99756.69;5074061;28;20032;-79
2022/01/02 10:02:10;;;;;;;0.00;0.00;;;;;;;14.57;61.81;99753.44;5074232;28;20044;-79
2022/01/02 10:04:38;;;;;;;0.10;0.10;;;;;;;14.64;61.71;99755.00;5073885;28;20482;-78
2022/01/02 10:07:06;;;;;;;0.10;0.10;;;;;;;14.66;61.27;99752.84;5074257;28;20028;-78
2022/01/02 10:09:34;;;;;;;0.10;0.10;;;;;;;14.71;60.44;99753.59;5073907;28;20051;-79
2022/01/02 10:12:20;;;;;;;0.10;0.10;;;;;;;14.81;59.78;99755.38;5074247;28;20514;-79
2022/01/02 10:15:06;;;;;;;0.00;0.00;;;;;;;14.82;60.31;99746.22;5073429;28;20036;-78
2022/01/02 10:17:52;;;;;;;0.40;0.40;;;;;;;14.91;58.60;99753.66;5056041;28;20047;-78
2022/01/02 10:20:20;;;;;;;0.20;0.20;;;;;;;14.88;58.39;99741.56;5073782;28;20038;-79
2022/01/02 10:23:08;;;;;;;0.20;0.20;;;;;;;14.87;58.70;99732.69;5073725;28;20032;-79
2022/01/02 10:25:49;;;;;;;0.25;0.25;;;;;;;14.96;58.62;99734.75;5073378;28;20032;-78
2022/01/02 10:28:18;;;;;;;0.10;0.10;;;;;;;14.92;59.08;99725.66;5073588;28;20093;-80
2022/01/02 10:30:49;;;;;;;0.25;0.25;;;;;;;14.93;59.28;99725.34;5073438;28;20187;-78
2022/01/02 10:33:15;;;;;;;1.27;1.27;;;;;;;15.01;59.39;99726.59;5073213;28;20043;-80
2022/01/02 10:35:41;;;;;;;0.13;0.13;;;;;;;15.06;59.46;99726.53;5073311;28;20110;-78
2022/01/02 10:38:06;;;;;;;0.00;0.00;;;;;;;15.07;58.80;99713.88;5073578;28;20119;-80
2022/01/02 10:40:39;;;;;;;0.10;0.10;;;;;;;15.05;58.25;99720.34;5073302;28;20479;-81
2022/01/02 10:43:27;;;;;;;0.00;0.00;;;;;;;15.15;58.55;99713.22;5073485;28;20036;-78
2022/01/02 10:45:53;;;;;;;;;;;;;;;15.19;58.09;99716.94;5073490;28;20073;-81
2022/01/02 10:48:40;;;;;;;0.03;0.03;;;;;;;15.20;58.16;99716.63;5072974;28;19908;-80
2022/01/02 10:51:07;;;;;;;0.00;0.00;;;;;;;15.19;56.85;99703.47;5073257;28;20133;-80
2022/01/02 10:53:36;;;;;;;0.43;0.43;;;;;;;15.24;56.57;99706.09;5072831;28;20021;-79
2022/01/02 10:56:05;;;;;;;0.10;0.10;;;;;;;15.18;56.85;99693.78;5072937;28;20048;-79
2022/01/02 10:58:33;;;;;;;0.10;0.10;;;;;;;15.23;56.75;99698.28;5072897;28;20063;-78
2022/01/02 11:01:06;;;;;;;0.00;0.00;;;;;;;15.20;56.10;99711.25;5073318;28;20388;-78
2022/01/02 11:03:33;;;;;;;0.22;0.22;;;;;;;15.19;57.40;99698.88;5072725;28;20027;-78
2022/01/02 11:06:06;;;;;;;0.30;0.30;;;;;;;15.16;57.62;99698.66;5073152;28;20032;-78
2022/01/02 11:08:35;;;;;;;0.10;0.10;;;;;;;15.16;57.71;99701.34;5072771;28;20024;-79
2022/01/02 11:11:02;;;;;;;0.75;0.75;;;;;;;15.14;57.64;99695.47;5073075;28;20042;-79
2022/01/02 11:13:28;;;;;;;1.67;1.30;;;;;;;14.94;58.04;99674.97;5072695;28;20038;-80
2022/01/02 11:15:54;;;;;;;0.00;0.00;;;;;;;15.18;58.28;99702.69;5073008;28;20028;-79
2022/01/02 11:18:21;;;;;;;0.00;0.00;;;;;;;15.15;57.71;99692.47;5073028;28;20397;-79
2022/01/02 11:20:46;;;;;;;0.35;0.35;;;;;;;15.17;57.84;99701.06;5072782;28;20097;-79
2022/01/02 11:23:21;;;;;;;1.45;0.47;;;;;;;15.20;57.40;99708.56;5072935;28;20032;-78
2022/01/02 11:25:46;;;;;;;0.28;0.28;;;;;;;15.19;57.16;99717.72;5072201;28;20096;-79
2022/01/02 11:28:35;;;;;;;0.00;0.00;;;;;;;15.23;56.54;99707.16;5072316;28;20052;-78
2022/01/02 11:31:01;;;;;;;0.10;0.10;;;;;;;15.19;56.80;99696.16;5072908;28;20020;-78
2022/01/02 11:33:42;;;;;;;0.00;0.00;;;;;;;15.20;56.92;99694.28;5072586;28;20035;-78
2022/01/02 11:36:24;;;;;;;0.15;0.15;;;;;;;15.22;56.69;99689.41;5072221;28;20036;-78
2022/01/02 11:39:06;;;;;;;0.00;0.00;;;;;;;15.31;56.83;99700.34;5072458;28;20055;-78
2022/01/02 11:41:37;;;;;;;0.20;0.20;;;;;;;15.27;55.46;99702.81;5072432;28;20032;-79
2022/01/02 11:44:05;;;;;;;0.38;0.38;;;;;;;15.26;56.60;99695.00;5072714;28;20024;-79
2022/01/02 11:46:38;;;;;;;0.28;0.25;;;;;;;15.28;55.78;99696.34;5072420;28;20480;-80